createdAt,value
2016-12-25T00:00:09.402Z,20.62
2016-12-25T00:00:35.106Z,20.58
2016-12-25T00:01:00.679Z,20.61
2016-12-25T00:01:26.242Z,20.62
2016-12-25T00:01:51.812Z,20.59
2016-12-25T00:02:17.511Z,20.62
2016-12-25T00:02:43.105Z,20.61
2016-12-25T00:03:08.663Z,20.61
2016-12-25T00:03:34.247Z,20.65
2016-12-25T00:03:59.911Z,20.61
2016-12-25T00:04:25.495Z,20.61
2016-12-25T00:04:51.045Z,20.62
2016-12-25T00:05:16.672Z,20.51
2016-12-25T00:05:42.315Z,20.62
2016-12-25T00:06:07.875Z,20.61
2016-12-25T00:06:33.443Z,20.54
2016-12-25T00:06:59.041Z,20.54
2016-12-25T00:07:24.589Z,20.54
2016-12-25T00:07:50.304Z,20.65
2016-12-25T00:08:15.925Z,20.62
2016-12-25T00:08:41.486Z,20.61
2016-12-25T00:09:07.060Z,20.62
2016-12-25T00:09:32.757Z,20.59
2016-12-25T00:09:58.333Z,20.62
2016-12-25T00:10:23.878Z,20.59
2016-12-25T00:10:49.482Z,20.59
2016-12-25T00:11:15.060Z,20.53
2016-12-25T00:11:40.623Z,20.65
2016-12-25T00:12:06.185Z,20.64
2016-12-25T00:12:31.815Z,20.59
2016-12-25T00:12:57.378Z,20.65
2016-12-25T00:13:22.946Z,20.59
2016-12-25T00:13:48.498Z,20.59
2016-12-25T00:14:14.047Z,20.59
2016-12-25T00:14:39.717Z,20.58
2016-12-25T00:15:05.272Z,20.54
2016-12-25T00:15:30.829Z,20.54
2016-12-25T00:15:56.461Z,20.62
2016-12-25T00:16:22.023Z,20.58
2016-12-25T00:16:47.594Z,20.62
2016-12-25T00:17:13.253Z,20.61
2016-12-25T00:17:38.834Z,20.53
2016-12-25T00:18:04.399Z,20.53
2016-12-25T00:18:29.964Z,20.61
2016-12-25T00:18:55.513Z,20.51
2016-12-25T00:19:21.076Z,20.58
2016-12-25T00:19:46.670Z,20.59
2016-12-25T00:20:12.245Z,20.54
2016-12-25T00:20:37.807Z,20.58
2016-12-25T00:21:03.389Z,20.58
2016-12-25T00:21:28.971Z,20.53
2016-12-25T00:21:54.516Z,20.59
2016-12-25T00:22:20.073Z,20.59
2016-12-25T00:22:45.643Z,20.61
2016-12-25T00:23:11.217Z,20.58
2016-12-25T00:23:36.785Z,20.51
2016-12-25T00:24:02.353Z,20.53
2016-12-25T00:24:27.921Z,20.54
2016-12-25T00:24:53.555Z,20.58
2016-12-25T00:25:19.128Z,20.53
2016-12-25T00:25:44.672Z,20.62
2016-12-25T00:26:10.236Z,20.56
2016-12-25T00:26:35.815Z,20.61
2016-12-25T00:27:01.383Z,20.53
2016-12-25T00:28:00.020Z,20.56
2016-12-25T00:28:25.727Z,20.56
2016-12-25T00:29:14.094Z,20.51
2016-12-25T00:29:39.660Z,20.53
2016-12-25T00:30:05.238Z,20.53
2016-12-25T00:30:30.787Z,20.49
2016-12-25T00:30:56.349Z,20.54
2016-12-25T00:31:21.901Z,20.58
2016-12-25T00:31:47.454Z,20.51
2016-12-25T00:32:13.003Z,20.54
2016-12-25T00:32:38.629Z,20.56
2016-12-25T00:33:04.191Z,20.61
2016-12-25T00:33:29.740Z,20.54
2016-12-25T00:33:55.339Z,20.56
2016-12-25T00:34:20.987Z,20.54
2016-12-25T00:34:46.548Z,20.54
2016-12-25T00:35:12.120Z,20.58
2016-12-25T00:35:37.659Z,20.56
2016-12-25T00:36:03.217Z,20.53
2016-12-25T00:36:28.779Z,20.49
2016-12-25T00:36:54.358Z,20.56
2016-12-25T00:37:19.916Z,20.56
2016-12-25T00:37:45.603Z,20.51
2016-12-25T00:38:11.177Z,20.49
2016-12-25T00:38:36.751Z,20.51
2016-12-25T00:39:02.294Z,20.53
2016-12-25T00:39:27.974Z,20.53
2016-12-25T00:39:53.513Z,20.53
2016-12-25T00:40:19.096Z,20.53
2016-12-25T00:40:44.785Z,20.49
2016-12-25T00:41:10.356Z,20.53
2016-12-25T00:41:35.914Z,20.49
2016-12-25T00:42:01.528Z,20.54
2016-12-25T00:42:27.122Z,20.54
2016-12-25T00:42:52.703Z,20.5
2016-12-25T00:43:18.256Z,20.49
2016-12-25T00:43:43.797Z,20.53
2016-12-25T00:44:09.360Z,20.49
2016-12-25T00:45:08.022Z,20.61
2016-12-25T00:45:33.569Z,20.53
2016-12-25T00:45:59.277Z,20.51
2016-12-25T00:46:24.840Z,20.51
2016-12-25T00:46:50.413Z,20.47
2016-12-25T00:47:15.974Z,20.53
2016-12-25T00:47:41.530Z,20.51
2016-12-25T00:48:07.075Z,20.53
2016-12-25T00:48:32.634Z,20.51
2016-12-25T00:48:58.198Z,20.53
2016-12-25T00:49:23.939Z,20.49
2016-12-25T00:49:49.509Z,20.5
2016-12-25T00:50:15.090Z,20.53
2016-12-25T00:50:40.658Z,20.51
2016-12-25T00:51:06.215Z,20.54
2016-12-25T00:51:31.784Z,20.49
2016-12-25T00:51:57.482Z,20.47
2016-12-25T00:52:23.077Z,20.54
2016-12-25T00:52:48.635Z,20.56
2016-12-25T00:53:14.298Z,20.49
2016-12-25T00:53:39.862Z,20.56
2016-12-25T00:54:05.424Z,20.59
2016-12-25T00:54:30.999Z,20.53
2016-12-25T00:54:56.735Z,20.5
2016-12-25T00:55:22.306Z,20.49
2016-12-25T00:55:47.864Z,20.56
2016-12-25T00:56:13.418Z,20.58
2016-12-25T00:56:39.002Z,20.5
2016-12-25T00:57:04.573Z,20.51
2016-12-25T00:57:30.130Z,20.5
2016-12-25T00:57:55.723Z,20.5
2016-12-25T00:58:21.326Z,20.54
2016-12-25T00:58:46.882Z,20.5
2016-12-25T00:59:12.455Z,20.51
2016-12-25T00:59:38.004Z,20.54
2016-12-25T01:00:03.671Z,20.54
2016-12-25T01:00:29.252Z,20.54
2016-12-25T01:00:54.814Z,20.56
2016-12-25T01:01:20.442Z,20.53
2016-12-25T01:01:46.108Z,20.59
2016-12-25T01:02:11.665Z,20.51
2016-12-25T01:02:37.236Z,20.54
2016-12-25T01:03:02.788Z,20.59
2016-12-25T01:03:28.356Z,20.53
2016-12-25T01:03:53.897Z,20.56
2016-12-25T01:04:19.469Z,20.53
2016-12-25T01:04:45.012Z,20.51
2016-12-25T01:05:10.558Z,20.51
2016-12-25T01:05:36.116Z,20.49
2016-12-25T01:06:01.667Z,20.51
2016-12-25T01:06:27.244Z,20.54
2016-12-25T01:06:52.828Z,20.58
2016-12-25T01:07:18.423Z,20.5
2016-12-25T01:07:44.023Z,20.54
2016-12-25T01:08:09.590Z,20.54
2016-12-25T01:08:35.162Z,20.5
2016-12-25T01:09:00.772Z,20.51
2016-12-25T01:09:26.382Z,20.61
2016-12-25T01:09:51.931Z,20.49
2016-12-25T01:10:17.484Z,20.5
2016-12-25T01:10:43.030Z,20.5
2016-12-25T01:11:08.608Z,20.56
2016-12-25T01:11:34.176Z,20.51
2016-12-25T01:11:59.729Z,20.58
2016-12-25T01:12:25.293Z,20.56
2016-12-25T01:12:50.953Z,20.51
2016-12-25T01:13:16.521Z,20.56
2016-12-25T01:13:42.182Z,20.61
2016-12-25T01:14:07.882Z,20.54
2016-12-25T01:14:33.454Z,20.62
2016-12-25T01:14:58.984Z,20.51
2016-12-25T01:15:24.571Z,20.46
2016-12-25T01:15:50.136Z,20.58
2016-12-25T01:16:15.696Z,20.47
2016-12-25T01:16:41.300Z,20.43
2016-12-25T01:17:06.873Z,20.5
2016-12-25T01:17:32.448Z,20.58
2016-12-25T01:17:58.016Z,20.5
2016-12-25T01:18:23.577Z,20.49
2016-12-25T01:18:49.225Z,20.43
2016-12-25T01:19:14.789Z,20.54
2016-12-25T01:19:40.344Z,20.46
2016-12-25T01:20:05.910Z,20.53
2016-12-25T01:20:31.504Z,20.47
2016-12-25T01:20:57.077Z,20.54
2016-12-25T01:21:22.635Z,20.35
2016-12-25T01:21:48.314Z,20.42
2016-12-25T01:22:13.861Z,20.46
2016-12-25T01:22:39.427Z,20.42
2016-12-25T01:23:04.986Z,20.51
2016-12-25T01:23:30.553Z,20.49
2016-12-25T01:23:56.090Z,20.5
2016-12-25T01:24:21.807Z,20.49
2016-12-25T01:24:47.374Z,20.42
2016-12-25T01:25:12.938Z,20.51
2016-12-25T01:25:38.541Z,20.38
2016-12-25T01:26:04.171Z,20.51
2016-12-25T01:26:29.734Z,20.43
2016-12-25T01:26:55.273Z,20.46
2016-12-25T01:27:20.851Z,20.43
2016-12-25T01:27:46.410Z,20.53
2016-12-25T01:28:11.976Z,20.53
2016-12-25T01:28:37.546Z,20.51
2016-12-25T01:29:03.113Z,20.5
2016-12-25T01:29:28.703Z,20.46
2016-12-25T01:29:54.239Z,20.53
2016-12-25T01:30:19.795Z,20.58
2016-12-25T01:30:45.392Z,20.38
2016-12-25T01:31:10.944Z,20.39
2016-12-25T01:31:36.509Z,20.49
2016-12-25T01:32:02.133Z,20.56
2016-12-25T01:32:27.688Z,20.43
2016-12-25T01:32:53.322Z,20.49
2016-12-25T01:33:18.917Z,20.42
2016-12-25T01:33:44.447Z,20.41
2016-12-25T01:34:10.019Z,20.35
2016-12-25T01:34:35.738Z,20.38
2016-12-25T01:35:01.308Z,20.41
2016-12-25T01:35:26.872Z,20.56
2016-12-25T01:35:52.512Z,20.41
2016-12-25T01:36:18.066Z,20.43
2016-12-25T01:36:43.629Z,20.41
2016-12-25T01:37:09.196Z,20.39
2016-12-25T01:37:34.783Z,20.41
2016-12-25T01:38:00.348Z,20.51
2016-12-25T01:38:25.897Z,20.38
2016-12-25T01:38:51.463Z,20.54
2016-12-25T01:39:17.106Z,20.43
2016-12-25T01:39:42.665Z,20.42
2016-12-25T01:40:08.228Z,20.42
2016-12-25T01:40:33.792Z,20.54
2016-12-25T01:40:59.464Z,20.47
2016-12-25T01:41:25.035Z,20.35
2016-12-25T01:41:50.591Z,20.43
2016-12-25T01:42:16.164Z,20.53
2016-12-25T01:42:41.725Z,20.39
2016-12-25T01:43:07.305Z,20.39
2016-12-25T01:43:32.879Z,20.43
2016-12-25T01:43:58.441Z,20.38
2016-12-25T01:44:23.993Z,20.41
2016-12-25T01:44:49.609Z,20.49
2016-12-25T01:45:15.166Z,20.41
2016-12-25T01:45:40.734Z,20.38
2016-12-25T01:46:06.300Z,20.41
2016-12-25T01:46:31.864Z,20.43
2016-12-25T01:46:57.460Z,20.38
2016-12-25T01:47:23.014Z,20.46
2016-12-25T01:47:48.582Z,20.41
2016-12-25T01:48:14.140Z,20.43
2016-12-25T01:48:39.856Z,20.35
2016-12-25T01:49:05.416Z,20.38
2016-12-25T01:49:30.994Z,20.43
2016-12-25T01:49:56.603Z,20.38
2016-12-25T01:50:22.166Z,20.46
2016-12-25T01:50:47.739Z,20.41
2016-12-25T01:51:13.427Z,20.42
2016-12-25T01:51:39.008Z,20.46
2016-12-25T01:52:04.574Z,20.39
2016-12-25T01:52:30.147Z,20.5
2016-12-25T01:52:55.704Z,20.42
2016-12-25T01:53:21.243Z,20.42
2016-12-25T01:53:46.808Z,20.39
2016-12-25T01:54:12.355Z,20.43
2016-12-25T01:54:37.892Z,20.42
2016-12-25T01:55:03.484Z,20.38
2016-12-25T01:55:29.042Z,20.39
2016-12-25T01:55:54.581Z,20.43
2016-12-25T01:56:20.164Z,20.41
2016-12-25T01:56:45.723Z,20.41
2016-12-25T01:57:11.268Z,20.38
2016-12-25T01:57:36.854Z,20.34
2016-12-25T01:58:02.432Z,20.47
2016-12-25T01:58:27.986Z,20.43
2016-12-25T01:58:53.554Z,20.41
2016-12-25T01:59:19.107Z,20.46
2016-12-25T01:59:44.695Z,20.43
2016-12-25T02:00:10.347Z,20.41
2016-12-25T02:00:35.906Z,20.38
2016-12-25T02:01:01.468Z,20.38
2016-12-25T02:01:27.151Z,20.42
2016-12-25T02:01:52.698Z,20.43
2016-12-25T02:02:18.330Z,20.39
2016-12-25T02:02:43.882Z,20.43
2016-12-25T02:03:09.457Z,20.41
2016-12-25T02:03:35.015Z,20.41
2016-12-25T02:04:00.582Z,20.43
2016-12-25T02:04:26.158Z,20.41
2016-12-25T02:04:51.740Z,20.43
2016-12-25T02:05:17.317Z,20.41
2016-12-25T02:05:42.882Z,20.42
2016-12-25T02:06:08.465Z,20.46
2016-12-25T02:06:34.127Z,20.43
2016-12-25T02:06:59.690Z,20.39
2016-12-25T02:07:25.361Z,20.43
2016-12-25T02:07:50.916Z,20.43
2016-12-25T02:08:16.477Z,20.43
2016-12-25T02:08:42.047Z,20.41
2016-12-25T02:09:07.766Z,20.42
2016-12-25T02:09:33.325Z,20.41
2016-12-25T02:09:58.889Z,20.34
2016-12-25T02:10:24.531Z,20.43
2016-12-25T02:10:50.197Z,20.41
2016-12-25T02:11:15.763Z,20.43
2016-12-25T02:11:41.379Z,20.42
2016-12-25T02:12:06.975Z,20.39
2016-12-25T02:12:32.535Z,20.43
2016-12-25T02:12:58.089Z,20.41
2016-12-25T02:13:23.758Z,20.38
2016-12-25T02:13:49.311Z,20.39
2016-12-25T02:14:14.872Z,20.43
2016-12-25T02:14:40.431Z,20.38
2016-12-25T02:15:06.003Z,20.38
2016-12-25T02:15:31.560Z,20.35
2016-12-25T02:15:57.110Z,20.39
2016-12-25T02:16:22.683Z,20.41
2016-12-25T02:16:48.273Z,20.38
2016-12-25T02:17:13.835Z,20.35
2016-12-25T02:17:39.391Z,20.41
2016-12-25T02:18:04.955Z,20.51
2016-12-25T02:18:30.542Z,20.38
2016-12-25T02:18:56.084Z,20.38
2016-12-25T02:19:21.695Z,20.46
2016-12-25T02:19:47.251Z,20.43
2016-12-25T02:20:12.822Z,20.38
2016-12-25T02:21:21.726Z,20.46
2016-12-25T02:21:47.294Z,20.35
2016-12-25T02:22:12.859Z,20.41
2016-12-25T02:22:38.476Z,20.41
2016-12-25T02:23:04.024Z,20.41
2016-12-25T02:23:29.582Z,20.34
2016-12-25T02:23:55.129Z,20.41
2016-12-25T02:24:20.713Z,20.49
2016-12-25T02:24:46.288Z,20.41
2016-12-25T02:25:11.840Z,20.47
2016-12-25T02:25:37.412Z,20.35
2016-12-25T02:26:02.992Z,20.41
2016-12-25T02:26:28.696Z,20.41
2016-12-25T02:26:54.249Z,20.42
2016-12-25T02:27:19.819Z,20.38
2016-12-25T02:27:45.379Z,20.38
2016-12-25T02:28:10.953Z,20.42
2016-12-25T02:28:36.517Z,20.38
2016-12-25T02:29:02.072Z,20.39
2016-12-25T02:29:27.636Z,20.41
2016-12-25T02:29:53.242Z,20.42
2016-12-25T02:30:18.824Z,20.38
2016-12-25T02:30:44.400Z,20.47
2016-12-25T02:31:09.955Z,20.46
2016-12-25T02:31:35.618Z,20.42
2016-12-25T02:32:01.188Z,20.39
2016-12-25T02:32:26.746Z,20.39
2016-12-25T02:32:52.317Z,20.43
2016-12-25T02:33:18.004Z,20.42
2016-12-25T02:33:43.565Z,20.41
2016-12-25T02:34:09.111Z,20.38
2016-12-25T02:34:34.802Z,20.43
2016-12-25T02:35:00.398Z,20.41
2016-12-25T02:35:25.954Z,20.38
2016-12-25T02:35:52.462Z,20.33
2016-12-25T02:36:17.188Z,20.35
2016-12-25T02:36:42.741Z,20.39
2016-12-25T02:37:08.311Z,20.43
2016-12-25T02:37:33.877Z,20.34
2016-12-25T02:37:59.442Z,20.34
2016-12-25T02:38:25.011Z,20.35
2016-12-25T02:38:50.616Z,20.46
2016-12-25T02:39:16.161Z,20.38
2016-12-25T02:39:41.725Z,20.39
2016-12-25T02:40:07.314Z,20.38
2016-12-25T02:40:32.867Z,20.39
2016-12-25T02:40:58.460Z,20.42
2016-12-25T02:41:51.933Z,20.39
2016-12-25T02:42:17.616Z,20.42
2016-12-25T02:42:43.176Z,20.42
2016-12-25T02:43:08.776Z,20.35
2016-12-25T02:43:34.337Z,20.42
2016-12-25T02:43:59.902Z,20.39
2016-12-25T02:44:25.466Z,20.33
2016-12-25T02:44:51.024Z,20.41
2016-12-25T02:45:16.599Z,20.38
2016-12-25T02:45:42.149Z,20.34
2016-12-25T02:46:07.711Z,20.41
2016-12-25T02:46:33.276Z,20.42
2016-12-25T02:46:58.903Z,20.39
2016-12-25T02:47:24.451Z,20.35
2016-12-25T02:47:50.075Z,20.39
2016-12-25T02:48:15.651Z,20.38
2016-12-25T02:48:41.228Z,20.38
2016-12-25T02:49:06.797Z,20.42
2016-12-25T02:49:32.356Z,20.31
2016-12-25T02:49:57.922Z,20.41
2016-12-25T02:50:23.507Z,20.33
2016-12-25T02:50:49.056Z,20.39
2016-12-25T02:51:14.604Z,20.42
2016-12-25T02:51:40.159Z,20.34
2016-12-25T02:52:05.714Z,20.42
2016-12-25T02:52:31.295Z,20.34
2016-12-25T02:52:56.862Z,20.38
2016-12-25T02:53:22.428Z,20.41
2016-12-25T02:53:47.991Z,20.35
2016-12-25T02:54:13.567Z,20.33
2016-12-25T02:54:39.204Z,20.39
2016-12-25T02:55:04.764Z,20.41
2016-12-25T02:55:30.325Z,20.41
2016-12-25T02:55:55.882Z,20.42
2016-12-25T02:56:21.456Z,20.39
2016-12-25T02:56:47.095Z,20.33
2016-12-25T02:57:12.648Z,20.42
2016-12-25T02:57:38.196Z,20.38
2016-12-25T02:58:03.872Z,20.31
2016-12-25T02:58:29.437Z,20.39
2016-12-25T02:58:54.986Z,20.43
2016-12-25T02:59:20.711Z,20.43
2016-12-25T02:59:46.267Z,20.39
2016-12-25T03:00:11.807Z,20.46
2016-12-25T03:00:37.516Z,20.31
2016-12-25T03:01:03.114Z,20.46
2016-12-25T03:01:28.628Z,20.3
2016-12-25T03:01:54.202Z,20.41
2016-12-25T03:02:19.929Z,20.3
2016-12-25T03:02:45.479Z,20.31
2016-12-25T03:03:11.044Z,20.34
2016-12-25T03:03:36.599Z,20.41
2016-12-25T03:04:02.164Z,20.39
2016-12-25T03:04:27.717Z,20.33
2016-12-25T03:04:53.284Z,20.33
2016-12-25T03:05:18.849Z,20.33
2016-12-25T03:05:44.402Z,20.35
2016-12-25T03:06:09.977Z,20.38
2016-12-25T03:06:35.542Z,20.31
2016-12-25T03:07:01.102Z,20.34
2016-12-25T03:07:26.660Z,20.33
2016-12-25T03:07:52.234Z,20.31
2016-12-25T03:08:17.873Z,20.41
2016-12-25T03:08:43.437Z,20.39
2016-12-25T03:09:08.977Z,20.33
2016-12-25T03:09:34.526Z,20.41
2016-12-25T03:10:00.110Z,20.31
2016-12-25T03:10:25.674Z,20.3
2016-12-25T03:10:51.244Z,20.3
2016-12-25T03:11:16.804Z,20.38
2016-12-25T03:11:42.345Z,20.31
2016-12-25T03:12:07.905Z,20.42
2016-12-25T03:12:33.472Z,20.33
2016-12-25T03:12:59.060Z,20.33
2016-12-25T03:13:24.614Z,20.33
2016-12-25T03:13:50.177Z,20.33
2016-12-25T03:14:15.791Z,20.39
2016-12-25T03:14:41.353Z,20.31
2016-12-25T03:15:06.927Z,20.41
2016-12-25T03:15:32.585Z,20.28
2016-12-25T03:15:58.228Z,20.31
2016-12-25T03:16:23.783Z,20.35
2016-12-25T03:16:49.417Z,20.35
2016-12-25T03:17:15.013Z,20.35
2016-12-25T03:17:40.585Z,20.39
2016-12-25T03:18:06.166Z,20.31
2016-12-25T03:18:31.714Z,20.38
2016-12-25T03:18:57.267Z,20.42
2016-12-25T03:19:22.822Z,20.31
2016-12-25T03:19:48.378Z,20.33
2016-12-25T03:20:13.936Z,20.31
2016-12-25T03:20:39.577Z,20.34
2016-12-25T03:21:05.137Z,20.38
2016-12-25T03:21:30.713Z,20.34
2016-12-25T03:21:56.315Z,20.31
2016-12-25T03:22:21.880Z,20.31
2016-12-25T03:22:47.435Z,20.35
2016-12-25T03:23:13.041Z,20.31
2016-12-25T03:23:38.606Z,20.31
2016-12-25T03:24:04.179Z,20.38
2016-12-25T03:24:29.737Z,20.34
2016-12-25T03:24:55.314Z,20.27
2016-12-25T03:25:20.888Z,20.28
2016-12-25T03:25:46.548Z,20.33
2016-12-25T03:26:12.147Z,20.35
2016-12-25T03:26:37.707Z,20.35
2016-12-25T03:27:03.268Z,20.41
2016-12-25T03:27:28.808Z,20.3
2016-12-25T03:27:54.372Z,20.35
2016-12-25T03:28:19.920Z,20.34
2016-12-25T03:28:45.462Z,20.27
2016-12-25T03:29:11.122Z,20.35
2016-12-25T03:29:36.735Z,20.3
2016-12-25T03:30:02.306Z,20.38
2016-12-25T03:30:27.876Z,20.41
2016-12-25T03:30:53.562Z,20.35
2016-12-25T03:31:19.114Z,20.41
2016-12-25T03:31:44.666Z,20.3
2016-12-25T03:32:10.227Z,20.34
2016-12-25T03:32:35.780Z,20.25
2016-12-25T03:33:01.344Z,20.38
2016-12-25T03:33:26.923Z,20.34
2016-12-25T03:33:52.479Z,20.33
2016-12-25T03:34:18.026Z,20.33
2016-12-25T03:34:43.633Z,20.3
2016-12-25T03:35:09.188Z,20.33
2016-12-25T03:35:34.769Z,20.3
2016-12-25T03:36:00.335Z,20.24
2016-12-25T03:36:25.891Z,20.34
2016-12-25T03:36:51.449Z,20.38
2016-12-25T03:37:17.016Z,20.34
2016-12-25T03:37:42.577Z,20.39
2016-12-25T03:38:08.138Z,20.34
2016-12-25T03:38:33.825Z,20.38
2016-12-25T03:38:59.404Z,20.35
2016-12-25T03:39:24.961Z,20.38
2016-12-25T03:39:50.647Z,20.34
2016-12-25T03:40:16.182Z,20.38
2016-12-25T03:40:41.735Z,20.38
2016-12-25T03:41:07.287Z,20.38
2016-12-25T03:41:32.870Z,20.34
2016-12-25T03:41:58.429Z,20.35
2016-12-25T03:42:24.006Z,20.38
2016-12-25T03:42:49.560Z,20.33
2016-12-25T03:43:15.129Z,20.34
2016-12-25T03:43:40.686Z,20.28
2016-12-25T03:44:06.249Z,20.31
2016-12-25T03:44:31.816Z,20.25
2016-12-25T03:44:57.376Z,20.35
2016-12-25T03:45:22.929Z,20.33
2016-12-25T03:45:48.505Z,20.34
2016-12-25T03:46:14.163Z,20.38
2016-12-25T03:46:39.716Z,20.31
2016-12-25T03:47:05.364Z,20.34
2016-12-25T03:47:30.983Z,20.39
2016-12-25T03:47:56.534Z,20.35
2016-12-25T03:48:22.150Z,20.35
2016-12-25T03:48:47.744Z,20.33
2016-12-25T03:49:13.337Z,20.27
2016-12-25T03:49:38.895Z,20.33
2016-12-25T03:50:04.570Z,20.31
2016-12-25T03:50:30.136Z,20.35
2016-12-25T03:50:55.697Z,20.33
2016-12-25T03:51:21.252Z,20.34
2016-12-25T03:51:46.812Z,20.38
2016-12-25T03:52:12.387Z,20.35
2016-12-25T03:52:37.985Z,20.35
2016-12-25T03:53:03.554Z,20.33
2016-12-25T03:53:29.112Z,20.31
2016-12-25T03:53:54.656Z,20.28
2016-12-25T03:54:20.219Z,20.33
2016-12-25T03:54:45.798Z,20.35
2016-12-25T03:55:11.352Z,20.34
2016-12-25T03:55:36.910Z,20.34
2016-12-25T03:56:02.549Z,20.34
2016-12-25T03:56:28.104Z,20.33
2016-12-25T03:56:53.660Z,20.34
2016-12-25T03:57:19.203Z,20.28
2016-12-25T03:57:44.789Z,20.34
2016-12-25T03:58:10.342Z,20.34
2016-12-25T03:58:35.886Z,20.35
2016-12-25T03:59:01.451Z,20.38
2016-12-25T03:59:27.005Z,20.39
2016-12-25T03:59:52.568Z,20.23
2016-12-25T04:00:18.146Z,20.34
2016-12-25T04:00:43.699Z,20.33
2016-12-25T04:01:09.274Z,20.33
2016-12-25T04:01:34.831Z,20.35
2016-12-25T04:02:00.505Z,20.34
2016-12-25T04:02:26.074Z,20.33
2016-12-25T04:02:51.640Z,20.33
2016-12-25T04:03:17.291Z,20.31
2016-12-25T04:03:42.893Z,20.33
2016-12-25T04:04:08.469Z,20.31
2016-12-25T04:04:34.022Z,20.35
2016-12-25T04:04:59.732Z,20.31
2016-12-25T04:05:25.301Z,20.31
2016-12-25T04:05:50.821Z,20.35
2016-12-25T04:06:16.451Z,20.31
2016-12-25T04:06:42.019Z,20.35
2016-12-25T04:07:07.593Z,20.3
2016-12-25T04:07:33.137Z,20.3
2016-12-25T04:07:58.699Z,20.38
2016-12-25T04:08:24.264Z,20.34
2016-12-25T04:08:49.851Z,20.35
2016-12-25T04:09:15.398Z,20.41
2016-12-25T04:09:40.949Z,20.33
2016-12-25T04:10:06.499Z,20.34
2016-12-25T04:10:32.052Z,20.31
2016-12-25T04:10:57.586Z,20.35
2016-12-25T04:11:23.156Z,20.42
2016-12-25T04:11:48.712Z,20.35
2016-12-25T04:12:14.330Z,20.33
2016-12-25T04:12:40.019Z,20.31
2016-12-25T04:13:05.580Z,20.35
2016-12-25T04:13:53.920Z,20.35
2016-12-25T04:14:19.509Z,20.33
2016-12-25T04:14:45.089Z,20.31
2016-12-25T04:15:10.652Z,20.33
2016-12-25T04:15:36.192Z,20.33
2016-12-25T04:16:01.741Z,20.34
2016-12-25T04:16:27.298Z,20.38
2016-12-25T04:16:52.905Z,20.33
2016-12-25T04:17:18.447Z,20.34
2016-12-25T04:17:44.005Z,20.34
2016-12-25T04:18:09.677Z,20.35
2016-12-25T04:18:35.232Z,20.33
2016-12-25T04:19:00.814Z,20.33
2016-12-25T04:19:26.387Z,20.34
2016-12-25T04:19:51.960Z,20.33
2016-12-25T04:20:17.490Z,20.35
2016-12-25T04:20:43.059Z,20.24
2016-12-25T04:21:08.615Z,20.34
2016-12-25T04:21:34.178Z,20.31
2016-12-25T04:21:59.855Z,20.39
2016-12-25T04:22:25.428Z,20.3
2016-12-25T04:22:51.016Z,20.31
2016-12-25T04:23:16.628Z,20.3
2016-12-25T04:23:42.179Z,20.41
2016-12-25T04:24:07.736Z,20.41
2016-12-25T04:24:33.296Z,20.46
2016-12-25T04:24:58.827Z,20.41
2016-12-25T04:25:24.376Z,20.3
2016-12-25T04:25:49.921Z,20.39
2016-12-25T04:26:15.485Z,20.38
2016-12-25T04:26:41.053Z,20.46
2016-12-25T04:27:06.626Z,20.42
2016-12-25T04:27:32.181Z,20.41
2016-12-25T04:27:57.824Z,20.41
2016-12-25T04:28:23.387Z,20.38
2016-12-25T04:28:48.935Z,20.41
2016-12-25T04:29:14.553Z,20.39
2016-12-25T04:29:40.180Z,20.41
2016-12-25T04:30:05.727Z,20.43
2016-12-25T04:30:31.458Z,20.46
2016-12-25T04:30:57.007Z,20.42
2016-12-25T04:31:22.582Z,20.39
2016-12-25T04:31:48.145Z,20.39
2016-12-25T04:32:13.783Z,20.42
2016-12-25T04:32:39.339Z,20.42
2016-12-25T04:33:04.905Z,20.39
2016-12-25T04:33:30.491Z,20.42
2016-12-25T04:33:56.138Z,20.43
2016-12-25T04:34:21.697Z,20.41
2016-12-25T04:34:47.268Z,20.53
2016-12-25T04:35:12.908Z,20.46
2016-12-25T04:35:38.475Z,20.53
2016-12-25T04:36:04.046Z,20.56
2016-12-25T04:36:29.620Z,20.49
2016-12-25T04:36:55.215Z,20.46
2016-12-25T04:37:20.796Z,20.42
2016-12-25T04:37:46.366Z,20.39
2016-12-25T04:38:11.923Z,20.51
2016-12-25T04:38:37.511Z,20.58
2016-12-25T04:39:03.081Z,20.39
2016-12-25T04:39:28.652Z,20.51
2016-12-25T04:39:54.220Z,20.58
2016-12-25T04:40:19.769Z,20.49
2016-12-25T04:40:45.316Z,20.56
2016-12-25T04:41:10.897Z,20.51
2016-12-25T04:41:36.456Z,20.56
2016-12-25T04:42:01.993Z,20.53
2016-12-25T04:42:27.543Z,20.5
2016-12-25T04:42:53.112Z,20.53
2016-12-25T04:43:18.673Z,20.53
2016-12-25T04:43:44.239Z,20.5
2016-12-25T04:44:09.801Z,20.51
2016-12-25T04:44:35.380Z,20.53
2016-12-25T04:45:01.056Z,20.53
2016-12-25T04:45:26.608Z,20.54
2016-12-25T04:45:52.166Z,20.54
2016-12-25T04:46:17.697Z,20.5
2016-12-25T04:46:43.254Z,20.59
2016-12-25T04:47:08.912Z,20.53
2016-12-25T04:47:34.454Z,20.53
2016-12-25T04:48:00.020Z,20.49
2016-12-25T04:48:25.570Z,20.53
2016-12-25T04:48:51.128Z,20.53
2016-12-25T04:49:16.697Z,20.59
2016-12-25T04:49:42.255Z,20.56
2016-12-25T04:50:07.823Z,20.5
2016-12-25T04:50:33.486Z,20.62
2016-12-25T04:50:59.074Z,20.61
2016-12-25T04:51:24.638Z,20.53
2016-12-25T04:51:50.196Z,20.5
2016-12-25T04:52:15.843Z,20.46
2016-12-25T04:52:41.408Z,20.51
2016-12-25T04:53:06.963Z,20.62
2016-12-25T04:53:32.590Z,20.51
2016-12-25T04:53:58.165Z,20.54
2016-12-25T04:54:23.742Z,20.59
2016-12-25T04:54:49.306Z,20.53
2016-12-25T04:55:14.866Z,20.62
2016-12-25T04:55:40.417Z,20.58
2016-12-25T04:56:06.056Z,20.61
2016-12-25T04:56:31.611Z,20.51
2016-12-25T04:56:57.189Z,20.56
2016-12-25T04:57:22.747Z,20.61
2016-12-25T04:57:48.307Z,20.54
2016-12-25T04:58:13.869Z,20.54
2016-12-25T04:58:39.432Z,20.61
2016-12-25T04:59:04.994Z,20.56
2016-12-25T04:59:30.557Z,20.62
2016-12-25T04:59:56.109Z,20.58
2016-12-25T05:00:21.688Z,20.61
2016-12-25T05:00:47.270Z,20.59
2016-12-25T05:01:12.815Z,20.62
2016-12-25T05:01:38.371Z,20.5
2016-12-25T05:02:03.942Z,20.51
2016-12-25T05:02:29.501Z,20.54
2016-12-25T05:02:55.058Z,20.64
2016-12-25T05:03:20.715Z,20.51
2016-12-25T05:03:46.328Z,20.61
2016-12-25T05:04:11.874Z,20.65
2016-12-25T05:04:37.519Z,20.65
2016-12-25T05:05:03.117Z,20.62
2016-12-25T05:05:28.690Z,20.59
2016-12-25T05:05:54.245Z,20.58
2016-12-25T05:06:19.956Z,20.59
2016-12-25T05:06:45.500Z,20.62
2016-12-25T05:07:11.199Z,20.62
2016-12-25T05:07:36.769Z,20.54
2016-12-25T05:08:02.345Z,20.53
2016-12-25T05:08:27.898Z,20.58
2016-12-25T05:08:53.533Z,20.68
2016-12-25T05:09:19.091Z,20.62
2016-12-25T05:09:44.649Z,20.65
2016-12-25T05:10:10.264Z,20.68
2016-12-25T05:10:35.817Z,20.61
2016-12-25T05:11:01.378Z,20.58
2016-12-25T05:11:26.940Z,20.62
2016-12-25T05:11:52.509Z,20.62
2016-12-25T05:12:18.068Z,20.61
2016-12-25T05:12:43.757Z,20.59
2016-12-25T05:13:09.321Z,20.61
2016-12-25T05:13:34.884Z,20.62
2016-12-25T05:14:00.453Z,20.66
2016-12-25T05:14:26.006Z,20.62
2016-12-25T05:14:51.577Z,20.68
2016-12-25T05:15:17.126Z,20.62
2016-12-25T05:15:42.697Z,20.62
2016-12-25T05:16:08.255Z,20.64
2016-12-25T05:16:33.923Z,20.62
2016-12-25T05:16:59.489Z,20.62
2016-12-25T05:17:25.054Z,20.64
2016-12-25T05:17:50.610Z,20.59
2016-12-25T05:18:16.177Z,20.65
2016-12-25T05:18:41.760Z,20.66
2016-12-25T05:19:07.324Z,20.64
2016-12-25T05:19:32.875Z,20.65
2016-12-25T05:19:58.457Z,20.59
2016-12-25T05:20:24.097Z,20.65
2016-12-25T05:20:49.660Z,20.61
2016-12-25T05:21:15.207Z,20.62
2016-12-25T05:21:40.760Z,20.64
2016-12-25T05:22:06.291Z,20.59
2016-12-25T05:22:31.929Z,20.64
2016-12-25T05:22:57.491Z,20.62
2016-12-25T05:23:23.051Z,20.59
2016-12-25T05:23:48.659Z,20.76
2016-12-25T05:24:14.206Z,20.62
2016-12-25T05:24:39.769Z,20.61
2016-12-25T05:25:05.447Z,20.59
2016-12-25T05:25:31.070Z,20.59
2016-12-25T05:25:56.612Z,20.71
2016-12-25T05:26:22.288Z,20.65
2016-12-25T05:26:47.848Z,20.59
2016-12-25T05:27:13.409Z,20.69
2016-12-25T05:27:39.029Z,20.65
2016-12-25T05:28:04.567Z,20.71
2016-12-25T05:28:30.146Z,20.66
2016-12-25T05:28:55.717Z,20.69
2016-12-25T05:29:21.278Z,20.62
2016-12-25T05:30:26.571Z,20.62
2016-12-25T05:32:40.552Z,20.64
2016-12-25T05:33:06.089Z,20.76
2016-12-25T05:33:31.653Z,20.66
2016-12-25T05:33:57.275Z,20.71
2016-12-25T05:34:22.826Z,20.66
2016-12-25T05:34:48.410Z,20.71
2016-12-25T05:35:13.997Z,20.64